Terminal Aerodrome Forecast
Issued by NWS

Home | Current Version | Previous Version | Text Only | Print | Product List | Glossary On
Versions: 1 2 3 4 5 6 7 8 9 10 11 12 13 14 15 16 17 18 19
857
FTUS44 KMAF 032325
TAFHOB
TAF
KHOB 032325Z 0400/0424 36006KT P6SM -DZ OVC008
      TEMPO 0400/0404 2SM RADZ BR OVC002
     FM040400 36006KT 3SM -DZ BR OVC002
     FM041700 36010KT P6SM OVC010=

USA.gov is the U.S. government's official web portal to all federal, state and local government web resources and services.